Camden, NJ

7:48 AM EST on December 18, 2014 (GMT -0500)
Dickinson Narrows | Change Station
CLOSE
Current Station
Personal Weather Station
Location: Philadelphia, PA
Elevation: 33 ft
Nearby Weather Stations

Elev 33 ft 39.93 °N, 75.15 °W | Updated 6 seconds ago

Partly Cloudy
Partly Cloudy
35.5 °F
Feels Like 36 °F
N
0.0
Wind Variable Wind from WSW
Gusts 3.0 mph

Today
High -- | Low -- °F
--% Chance of Precip.
Yesterday
High -- | Low -- °F
Precip. -- in
7:16 AM 4:37 PM
Waning Crescent, 15% visible
Pressure 30.06 in
Visibility 10.0 miles
Clouds Scattered Clouds 4200 ft
Windchill 36 °F
Dew Point 23 °F
Humidity 61%
Rainfall 0.00 in
Snow Depth Not available.
UV 0 out of 12
Pollen .10 out of 12
Air Quality Not available.
Flu Activity Not available.
METAR KPHL 181154Z 27009KT 10SM SCT042 02/M08 A3006 RMK AO2 SLP179 T00171078 10028 20011 51015

More Conditions Fewer Conditions

Pressure 30.06 in
Visibility 10.0 miles
Clouds Scattered Clouds 4200 ft
Windchill 36 °F
Dew Point 23 °F
Humidity 61%
Rainfall 0.00 in
Snow Depth Not available.
UV 0 out of 12
Pollen .10 out of 12
Air Quality Not available.
Flu Activity Not available.
METAR KPHL 181154Z 27009KT 10SM SCT042 02/M08 A3006 RMK AO2 SLP179 T00171078 10028 20011 51015

More Conditions Fewer Conditions

10-Day Weather Forecast

Almanac

Astronomy

Dec. 18, 2014 Rise Set
Actual Time
Civil Twilight
Nautical Twilight
Astronomical Twilight
Moon
Length of Visible Light
Length of Day
Tomorrow will be .
, % of the Moon is Illuminated

Today's Extremes

State Highs State Lows

Community

WunderPhotos

Upload Photos

1,778,923 photos uploaded!

WunderBlogs® & News

Nearby

Air Quality

  Air Quality AQ Index Pollutant
Not available.

Snow Depth

Station Depth Elevation

Earthquake Activity

City Distance Mag. Time & Date
Minimum magnitude displayed is 2.5.

Coastal Water Temperatures

Place Temperature

Nearby Weather Stations